sensor_id;sensor_type;location;lat;lon;timestamp;pressure;altitude;pressure_sealevel;temperature;humidity
50310;BME280;36207;51.850;21.698;2023-04-29T00:00:14;99974.79;;;6.68;53.07
50310;BME280;36207;51.850;21.698;2023-04-29T00:03:01;99970.05;;;6.68;53.05
50310;BME280;36207;51.850;21.698;2023-04-29T00:05:27;99967.31;;;6.67;53.10
50310;BME280;36207;51.850;21.698;2023-04-29T00:07:53;99963.83;;;6.67;53.13
50310;BME280;36207;51.850;21.698;2023-04-29T00:10:20;99964.20;;;6.67;53.33
50310;BME280;36207;51.850;21.698;2023-04-29T00:12:46;99964.10;;;6.66;53.15
50310;BME280;36207;51.850;21.698;2023-04-29T00:15:13;99962.28;;;6.63;53.48
50310;BME280;36207;51.850;21.698;2023-04-29T00:17:40;99956.52;;;6.62;53.23
50310;BME280;36207;51.850;21.698;2023-04-29T00:20:07;99956.96;;;6.61;53.41
50310;BME280;36207;51.850;21.698;2023-04-29T00:22:33;99956.52;;;6.61;53.38
50310;BME280;36207;51.850;21.698;2023-04-29T00:25:00;99954.28;;;6.58;53.54
50310;BME280;36207;51.850;21.698;2023-04-29T00:27:26;99951.45;;;6.56;53.57
50310;BME280;36207;51.850;21.698;2023-04-29T00:29:53;99952.73;;;6.54;53.50
50310;BME280;36207;51.850;21.698;2023-04-29T00:32:19;99949.95;;;6.52;53.36
50310;BME280;36207;51.850;21.698;2023-04-29T00:34:45;99951.34;;;6.52;53.45
50310;BME280;36207;51.850;21.698;2023-04-29T00:37:12;99950.55;;;6.51;53.71
50310;BME280;36207;51.850;21.698;2023-04-29T00:39:38;99949.64;;;6.50;53.48
50310;BME280;36207;51.850;21.698;2023-04-29T00:42:05;99945.55;;;6.48;53.73
50310;BME280;36207;51.850;21.698;2023-04-29T00:44:31;99947.13;;;6.48;53.76
50310;BME280;36207;51.850;21.698;2023-04-29T00:46:58;99947.08;;;6.49;53.76
50310;BME280;36207;51.850;21.698;2023-04-29T00:49:25;99940.95;;;6.48;53.88
50310;BME280;36207;51.850;21.698;2023-04-29T00:51:53;99936.33;;;6.48;53.88
50310;BME280;36207;51.850;21.698;2023-04-29T00:54:21;99934.94;;;6.46;54.15
50310;BME280;36207;51.850;21.698;2023-04-29T00:56:48;99931.63;;;6.44;54.16
50310;BME280;36207;51.850;21.698;2023-04-29T00:59:16;99933.56;;;6.41;54.02
50310;BME280;36207;51.850;21.698;2023-04-29T01:01:43;99931.23;;;6.39;53.95
50310;BME280;36207;51.850;21.698;2023-04-29T01:04:09;99933.67;;;6.38;54.21
50310;BME280;36207;51.850;21.698;2023-04-29T01:06:53;99933.09;;;6.35;54.43
50310;BME280;36207;51.850;21.698;2023-04-29T01:17:54;99927.70;;;6.23;54.60
50310;BME280;36207;51.850;21.698;2023-04-29T01:20:21;99929.64;;;6.21;54.37
50310;BME280;36207;51.850;21.698;2023-04-29T01:22:49;99926.27;;;6.22;54.42
50310;BME280;36207;51.850;21.698;2023-04-29T01:25:16;99925.93;;;6.22;54.35
50310;BME280;36207;51.850;21.698;2023-04-29T01:30:45;99925.78;;;6.21;54.86
50310;BME280;36207;51.850;21.698;2023-04-29T01:35:59;99929.76;;;6.17;54.71
50310;BME280;36207;51.850;21.698;2023-04-29T01:42:16;99929.31;;;6.13;54.68
50310;BME280;36207;51.850;21.698;2023-04-29T01:44:46;99929.10;;;6.13;54.85
50310;BME280;36207;51.850;21.698;2023-04-29T01:47:15;99931.17;;;6.12;54.88
50310;BME280;36207;51.850;21.698;2023-04-29T01:49:42;99927.09;;;6.10;54.72
50310;BME280;36207;51.850;21.698;2023-04-29T01:52:12;99925.70;;;6.10;54.96
50310;BME280;36207;51.850;21.698;2023-04-29T01:54:38;99927.11;;;6.10;55.04
50310;BME280;36207;51.850;21.698;2023-04-29T01:57:04;99926.54;;;6.09;54.95
50310;BME280;36207;51.850;21.698;2023-04-29T01:59:31;99927.67;;;6.06;54.94
50310;BME280;36207;51.850;21.698;2023-04-29T02:01:57;99926.28;;;6.06;55.07
50310;BME280;36207;51.850;21.698;2023-04-29T02:04:24;99923.77;;;6.06;55.29
50310;BME280;36207;51.850;21.698;2023-04-29T02:06:51;99923.39;;;6.04;54.98
50310;BME280;36207;51.850;21.698;2023-04-29T02:09:17;99927.45;;;6.05;55.07
50310;BME280;36207;51.850;21.698;2023-04-29T02:11:44;99927.13;;;6.04;55.01
50310;BME280;36207;51.850;21.698;2023-04-29T02:14:10;99928.08;;;6.03;54.93
50310;BME280;36207;51.850;21.698;2023-04-29T02:16:37;99924.89;;;6.03;55.22
50310;BME280;36207;51.850;21.698;2023-04-29T02:19:03;99925.54;;;6.02;55.23
50310;BME280;36207;51.850;21.698;2023-04-29T02:21:30;99925.76;;;6.02;55.42
50310;BME280;36207;51.850;21.698;2023-04-29T02:23:57;99924.60;;;5.99;55.51
50310;BME280;36207;51.850;21.698;2023-04-29T02:26:23;99919.54;;;5.99;55.13
50310;BME280;36207;51.850;21.698;2023-04-29T02:28:49;99920.51;;;5.98;55.24
50310;BME280;36207;51.850;21.698;2023-04-29T02:31:17;99917.49;;;5.98;55.26
50310;BME280;36207;51.850;21.698;2023-04-29T02:33:43;99916.34;;;5.97;55.31
50310;BME280;36207;51.850;21.698;2023-04-29T02:36:10;99917.63;;;5.97;55.29
50310;BME280;36207;51.850;21.698;2023-04-29T02:38:36;99917.48;;;5.96;55.40
50310;BME280;36207;51.850;21.698;2023-04-29T02:41:02;99918.09;;;5.94;55.56
50310;BME280;36207;51.850;21.698;2023-04-29T02:43:29;99917.45;;;5.91;55.57
50310;BME280;36207;51.850;21.698;2023-04-29T02:45:56;99913.98;;;5.89;55.45
50310;BME280;36207;51.850;21.698;2023-04-29T02:48:23;99914.40;;;5.88;55.57
50310;BME280;36207;51.850;21.698;2023-04-29T02:50:49;99913.83;;;5.89;55.55
50310;BME280;36207;51.850;21.698;2023-04-29T02:53:15;99913.80;;;5.89;55.42
50310;BME280;36207;51.850;21.698;2023-04-29T02:55:42;99915.79;;;5.88;55.91
50310;BME280;36207;51.850;21.698;2023-04-29T02:58:09;99913.81;;;5.87;55.88
50310;BME280;36207;51.850;21.698;2023-04-29T03:00:35;99913.17;;;5.85;56.31
50310;BME280;36207;51.850;21.698;2023-04-29T03:03:02;99913.58;;;5.82;55.88
50310;BME280;36207;51.850;21.698;2023-04-29T03:05:28;99909.52;;;5.80;56.11
50310;BME280;36207;51.850;21.698;2023-04-29T03:07:55;99908.05;;;5.79;55.99
50310;BME280;36207;51.850;21.698;2023-04-29T03:10:21;99907.05;;;5.78;55.81
50310;BME280;36207;51.850;21.698;2023-04-29T03:12:47;99908.91;;;5.79;56.23
50310;BME280;36207;51.850;21.698;2023-04-29T03:15:13;99905.91;;;5.77;56.17
50310;BME280;36207;51.850;21.698;2023-04-29T03:17:40;99906.58;;;5.74;56.74
50310;BME280;36207;51.850;21.698;2023-04-29T03:20:07;99903.16;;;5.71;56.36
50310;BME280;36207;51.850;21.698;2023-04-29T03:22:35;99903.05;;;5.70;56.65
50310;BME280;36207;51.850;21.698;2023-04-29T03:25:02;99900.39;;;5.69;56.42
50310;BME280;36207;51.850;21.698;2023-04-29T03:27:28;99902.39;;;5.70;56.57
50310;BME280;36207;51.850;21.698;2023-04-29T03:29:55;99904.35;;;5.70;56.72
50310;BME280;36207;51.850;21.698;2023-04-29T03:32:21;99902.61;;;5.71;56.33
50310;BME280;36207;51.850;21.698;2023-04-29T03:34:48;99904.20;;;5.73;56.65
50310;BME280;36207;51.850;21.698;2023-04-29T03:37:14;99905.16;;;5.72;56.68
50310;BME280;36207;51.850;21.698;2023-04-29T03:39:41;99906.77;;;5.74;56.56
50310;BME280;36207;51.850;21.698;2023-04-29T03:42:08;99905.60;;;5.75;57.00
50310;BME280;36207;51.850;21.698;2023-04-29T03:44:34;99902.14;;;5.74;56.92
50310;BME280;36207;51.850;21.698;2023-04-29T03:47:00;99901.88;;;5.75;56.76
50310;BME280;36207;51.850;21.698;2023-04-29T03:49:27;99903.58;;;5.76;57.10
50310;BME280;36207;51.850;21.698;2023-04-29T03:51:53;99903.42;;;5.77;56.94
50310;BME280;36207;51.850;21.698;2023-04-29T03:54:20;99898.39;;;5.80;57.04
50310;BME280;36207;51.850;21.698;2023-04-29T03:56:46;99897.12;;;5.82;57.36
50310;BME280;36207;51.850;21.698;2023-04-29T03:59:12;99896.99;;;5.83;57.06
50310;BME280;36207;51.850;21.698;2023-04-29T04:01:39;99893.88;;;5.85;57.35
50310;BME280;36207;51.850;21.698;2023-04-29T04:04:05;99891.84;;;5.86;57.17
50310;BME280;36207;51.850;21.698;2023-04-29T04:06:31;99892.08;;;5.87;57.50
50310;BME280;36207;51.850;21.698;2023-04-29T04:08:58;99891.23;;;5.88;57.47
50310;BME280;36207;51.850;21.698;2023-04-29T04:11:24;99893.36;;;5.90;57.39
50310;BME280;36207;51.850;21.698;2023-04-29T04:13:50;99895.90;;;5.91;57.82
50310;BME280;36207;51.850;21.698;2023-04-29T04:16:17;99895.81;;;5.92;57.92
50310;BME280;36207;51.850;21.698;2023-04-29T04:18:43;99890.65;;;5.94;57.63
50310;BME280;36207;51.850;21.698;2023-04-29T04:21:10;99894.48;;;5.99;57.93
50310;BME280;36207;51.850;21.698;2023-04-29T04:23:39;99893.06;;;6.00;57.94
50310;BME280;36207;51.850;21.698;2023-04-29T04:26:06;99893.88;;;6.03;57.84
50310;BME280;36207;51.850;21.698;2023-04-29T04:28:32;99888.34;;;6.05;58.14
50310;BME280;36207;51.850;21.698;2023-04-29T04:30:59;99889.52;;;6.08;58.10
50310;BME280;36207;51.850;21.698;2023-04-29T04:33:25;99889.27;;;6.10;58.07
50310;BME280;36207;51.850;21.698;2023-04-29T04:35:53;99889.19;;;6.13;58.40
50310;BME280;36207;51.850;21.698;2023-04-29T04:38:20;99890.21;;;6.16;58.17
50310;BME280;36207;51.850;21.698;2023-04-29T04:40:48;99889.11;;;6.20;58.39
50310;BME280;36207;51.850;21.698;2023-04-29T04:43:14;99891.29;;;6.25;58.55
50310;BME280;36207;51.850;21.698;2023-04-29T04:45:40;99892.02;;;6.30;58.81
50310;BME280;36207;51.850;21.698;2023-04-29T04:48:07;99890.33;;;6.37;58.44
50310;BME280;36207;51.850;21.698;2023-04-29T04:50:33;99889.88;;;6.43;58.36
50310;BME280;36207;51.850;21.698;2023-04-29T04:52:59;99884.05;;;6.49;58.37
50310;BME280;36207;51.850;21.698;2023-04-29T04:55:26;99882.07;;;6.57;58.28
50310;BME280;36207;51.850;21.698;2023-04-29T04:57:52;99879.52;;;6.63;58.57
50310;BME280;36207;51.850;21.698;2023-04-29T05:00:18;99883.54;;;6.68;58.51
50310;BME280;36207;51.850;21.698;2023-04-29T05:02:45;99880.77;;;6.75;58.61
50310;BME280;36207;51.850;21.698;2023-04-29T05:05:11;99878.73;;;6.81;58.55
50310;BME280;36207;51.850;21.698;2023-04-29T05:07:38;99879.66;;;6.87;58.73
50310;BME280;36207;51.850;21.698;2023-04-29T05:10:05;99878.50;;;6.97;58.55
50310;BME280;36207;51.850;21.698;2023-04-29T05:12:32;99880.63;;;7.07;58.48
50310;BME280;36207;51.850;21.698;2023-04-29T05:15:00;99874.88;;;7.20;58.41
50310;BME280;36207;51.850;21.698;2023-04-29T05:17:27;99875.45;;;7.31;58.26
50310;BME280;36207;51.850;21.698;2023-04-29T05:19:53;99874.23;;;7.41;58.00
50310;BME280;36207;51.850;21.698;2023-04-29T05:22:20;99870.83;;;7.51;58.01
50310;BME280;36207;51.850;21.698;2023-04-29T05:24:46;99867.98;;;7.61;57.94
50310;BME280;36207;51.850;21.698;2023-04-29T05:27:17;99866.94;;;7.73;57.97
50310;BME280;36207;51.850;21.698;2023-04-29T05:29:44;99866.55;;;7.81;58.04
50310;BME280;36207;51.850;21.698;2023-04-29T05:32:10;99865.26;;;7.89;57.73
50310;BME280;36207;51.850;21.698;2023-04-29T05:34:38;99859.47;;;7.96;57.67
50310;BME280;36207;51.850;21.698;2023-04-29T05:37:05;99859.50;;;8.04;57.79
50310;BME280;36207;51.850;21.698;2023-04-29T05:39:31;99861.20;;;8.13;57.73
50310;BME280;36207;51.850;21.698;2023-04-29T05:41:58;99861.70;;;8.21;57.43
50310;BME280;36207;51.850;21.698;2023-04-29T05:44:24;99862.21;;;8.28;57.43
50310;BME280;36207;51.850;21.698;2023-04-29T05:46:50;99861.42;;;8.35;57.37
50310;BME280;36207;51.850;21.698;2023-04-29T05:49:17;99858.97;;;8.43;57.34
50310;BME280;36207;51.850;21.698;2023-04-29T05:51:43;99863.23;;;8.51;57.44
50310;BME280;36207;51.850;21.698;2023-04-29T05:54:09;99860.33;;;8.60;57.23
50310;BME280;36207;51.850;21.698;2023-04-29T05:56:36;99865.90;;;8.69;57.02
50310;BME280;36207;51.850;21.698;2023-04-29T05:59:02;99867.58;;;8.76;57.09
50310;BME280;36207;51.850;21.698;2023-04-29T06:01:28;99870.11;;;8.87;57.25
50310;BME280;36207;51.850;21.698;2023-04-29T06:03:55;99873.27;;;8.98;57.33
50310;BME280;36207;51.850;21.698;2023-04-29T06:06:21;99873.27;;;9.06;56.50
50310;BME280;36207;51.850;21.698;2023-04-29T06:08:47;99872.91;;;9.12;56.52
50310;BME280;36207;51.850;21.698;2023-04-29T06:11:14;99867.11;;;9.21;56.93
50310;BME280;36207;51.850;21.698;2023-04-29T06:13:40;99865.83;;;9.31;56.34
50310;BME280;36207;51.850;21.698;2023-04-29T06:16:07;99867.77;;;9.37;56.25
50310;BME280;36207;51.850;21.698;2023-04-29T06:18:34;99867.79;;;9.44;55.83
50310;BME280;36207;51.850;21.698;2023-04-29T06:21:00;99864.98;;;9.51;55.92
50310;BME280;36207;51.850;21.698;2023-04-29T06:23:26;99866.96;;;9.58;55.47
50310;BME280;36207;51.850;21.698;2023-04-29T06:25:52;99863.68;;;9.65;55.93
50310;BME280;36207;51.850;21.698;2023-04-29T06:28:19;99868.10;;;9.73;55.37
50310;BME280;36207;51.850;21.698;2023-04-29T06:30:45;99870.73;;;9.80;55.12
50310;BME280;36207;51.850;21.698;2023-04-29T06:33:13;99870.13;;;9.83;54.57
50310;BME280;36207;51.850;21.698;2023-04-29T06:35:39;99871.58;;;9.89;54.81
50310;BME280;36207;51.850;21.698;2023-04-29T06:38:08;99868.95;;;9.95;54.52
50310;BME280;36207;51.850;21.698;2023-04-29T06:40:35;99873.19;;;10.03;54.84
50310;BME280;36207;51.850;21.698;2023-04-29T06:43:01;99873.65;;;10.11;54.73
50310;BME280;36207;51.850;21.698;2023-04-29T06:45:29;99878.63;;;10.19;54.50
50310;BME280;36207;51.850;21.698;2023-04-29T06:47:56;99874.14;;;10.25;54.57
50310;BME280;36207;51.850;21.698;2023-04-29T06:50:23;99875.23;;;10.33;54.93
50310;BME280;36207;51.850;21.698;2023-04-29T06:52:50;99871.62;;;10.41;54.71
50310;BME280;36207;51.850;21.698;2023-04-29T06:55:16;99872.61;;;10.49;54.51
50310;BME280;36207;51.850;21.698;2023-04-29T06:57:43;99876.36;;;10.55;54.19
50310;BME280;36207;51.850;21.698;2023-04-29T07:00:10;99876.89;;;10.55;53.69
50310;BME280;36207;51.850;21.698;2023-04-29T07:02:37;99876.87;;;10.51;53.66
50310;BME280;36207;51.850;21.698;2023-04-29T07:05:04;99877.27;;;10.50;53.80
50310;BME280;36207;51.850;21.698;2023-04-29T07:07:31;99874.34;;;10.52;53.79
50310;BME280;36207;51.850;21.698;2023-04-29T07:09:58;99874.30;;;10.57;53.37
50310;BME280;36207;51.850;21.698;2023-04-29T07:12:24;99872.73;;;10.63;53.27
50310;BME280;36207;51.850;21.698;2023-04-29T07:14:51;99874.60;;;10.70;53.28
50310;BME280;36207;51.850;21.698;2023-04-29T07:17:17;99872.48;;;10.80;53.48
50310;BME280;36207;51.850;21.698;2023-04-29T07:19:44;99866.97;;;10.95;54.12
50310;BME280;36207;51.850;21.698;2023-04-29T07:22:10;99865.23;;;11.12;53.95
50310;BME280;36207;51.850;21.698;2023-04-29T07:24:37;99863.09;;;11.28;53.71
50310;BME280;36207;51.850;21.698;2023-04-29T07:27:04;99860.66;;;11.44;53.77
50310;BME280;36207;51.850;21.698;2023-04-29T07:29:30;99862.75;;;11.57;53.62
50310;BME280;36207;51.850;21.698;2023-04-29T07:31:56;99863.53;;;11.69;53.59
50310;BME280;36207;51.850;21.698;2023-04-29T07:34:23;99858.25;;;11.80;52.61
50310;BME280;36207;51.850;21.698;2023-04-29T07:36:49;99856.80;;;11.89;53.11
50310;BME280;36207;51.850;21.698;2023-04-29T07:39:15;99855.12;;;11.98;52.62
50310;BME280;36207;51.850;21.698;2023-04-29T07:41:42;99858.02;;;12.05;51.37
50310;BME280;36207;51.850;21.698;2023-04-29T07:44:08;99855.70;;;12.08;50.41
50310;BME280;36207;51.850;21.698;2023-04-29T07:46:34;99855.13;;;12.13;50.71
50310;BME280;36207;51.850;21.698;2023-04-29T07:49:01;99854.98;;;12.17;50.71
50310;BME280;36207;51.850;21.698;2023-04-29T07:51:28;99854.66;;;12.22;50.72
50310;BME280;36207;51.850;21.698;2023-04-29T07:53:54;99856.70;;;12.26;50.76
50310;BME280;36207;51.850;21.698;2023-04-29T07:56:21;99855.16;;;12.28;50.31
50310;BME280;36207;51.850;21.698;2023-04-29T07:58:48;99854.85;;;12.30;50.17
50310;BME280;36207;51.850;21.698;2023-04-29T08:01:15;99854.98;;;12.35;49.82
50310;BME280;36207;51.850;21.698;2023-04-29T08:03:42;99858.88;;;12.44;50.24
50310;BME280;36207;51.850;21.698;2023-04-29T08:06:08;99852.32;;;12.55;50.09
50310;BME280;36207;51.850;21.698;2023-04-29T08:08:34;99851.02;;;12.66;49.93
50310;BME280;36207;51.850;21.698;2023-04-29T08:11:01;99852.74;;;12.78;49.90
50310;BME280;36207;51.850;21.698;2023-04-29T08:13:28;99851.01;;;12.91;50.80
50310;BME280;36207;51.850;21.698;2023-04-29T08:15:54;99848.27;;;13.07;50.84
50310;BME280;36207;51.850;21.698;2023-04-29T08:18:21;99853.05;;;13.23;49.65
50310;BME280;36207;51.850;21.698;2023-04-29T08:20:47;99850.39;;;13.36;49.34
50310;BME280;36207;51.850;21.698;2023-04-29T08:23:14;99849.25;;;13.52;49.97
50310;BME280;36207;51.850;21.698;2023-04-29T08:25:41;99849.08;;;13.68;49.17
50310;BME280;36207;51.850;21.698;2023-04-29T08:28:09;99851.30;;;13.84;49.48
50310;BME280;36207;51.850;21.698;2023-04-29T08:30:38;99850.35;;;14.00;49.66
50310;BME280;36207;51.850;21.698;2023-04-29T08:33:05;99849.38;;;14.16;49.53
50310;BME280;36207;51.850;21.698;2023-04-29T08:35:34;99852.48;;;14.32;49.57
50310;BME280;36207;51.850;21.698;2023-04-29T08:38:03;99856.06;;;14.47;47.91
50310;BME280;36207;51.850;21.698;2023-04-29T08:40:41;99855.55;;;14.47;45.72
50310;BME280;36207;51.850;21.698;2023-04-29T08:43:08;99852.08;;;14.48;46.01
50310;BME280;36207;51.850;21.698;2023-04-29T08:45:36;99854.42;;;14.53;46.11
50310;BME280;36207;51.850;21.698;2023-04-29T08:48:02;99856.12;;;14.60;45.50
50310;BME280;36207;51.850;21.698;2023-04-29T08:50:30;99855.65;;;14.64;46.09
50310;BME280;36207;51.850;21.698;2023-04-29T08:52:57;99853.38;;;14.69;45.95
50310;BME280;36207;51.850;21.698;2023-04-29T08:55:25;99847.48;;;14.74;46.80
50310;BME280;36207;51.850;21.698;2023-04-29T08:57:53;99845.56;;;14.84;47.21
50310;BME280;36207;51.850;21.698;2023-04-29T09:00:21;99847.80;;;14.89;44.61
50310;BME280;36207;51.850;21.698;2023-04-29T09:02:50;99845.61;;;14.92;44.76
50310;BME280;36207;51.850;21.698;2023-04-29T09:05:18;99846.60;;;14.96;44.50
50310;BME280;36207;51.850;21.698;2023-04-29T09:07:45;99845.33;;;15.02;45.54
50310;BME280;36207;51.850;21.698;2023-04-29T09:10:13;99842.45;;;15.11;45.66
50310;BME280;36207;51.850;21.698;2023-04-29T09:12:41;99846.37;;;15.23;45.10
50310;BME280;36207;51.850;21.698;2023-04-29T09:15:08;99850.21;;;15.27;44.05
50310;BME280;36207;51.850;21.698;2023-04-29T09:17:45;99850.12;;;15.29;43.82
50310;BME280;36207;51.850;21.698;2023-04-29T09:22:51;99845.08;;;15.43;43.53
50310;BME280;36207;51.850;21.698;2023-04-29T09:25:19;99846.45;;;15.50;41.31
50310;BME280;36207;51.850;21.698;2023-04-29T09:27:46;99845.64;;;15.48;40.71
50310;BME280;36207;51.850;21.698;2023-04-29T09:30:12;99845.05;;;15.47;41.45
50310;BME280;36207;51.850;21.698;2023-04-29T09:32:42;99836.90;;;15.48;41.46
50310;BME280;36207;51.850;21.698;2023-04-29T09:35:26;99836.59;;;15.51;40.91
50310;BME280;36207;51.850;21.698;2023-04-29T09:38:07;99839.91;;;15.56;40.23
50310;BME280;36207;51.850;21.698;2023-04-29T09:40:34;99831.61;;;15.60;42.43
50310;BME280;36207;51.850;21.698;2023-04-29T09:43:02;99830.46;;;15.70;42.10
50310;BME280;36207;51.850;21.698;2023-04-29T09:45:35;99828.72;;;15.77;41.70
50310;BME280;36207;51.850;21.698;2023-04-29T09:48:05;99833.06;;;15.83;41.48
50310;BME280;36207;51.850;21.698;2023-04-29T09:50:32;99827.08;;;15.85;41.19
50310;BME280;36207;51.850;21.698;2023-04-29T09:52:59;99820.61;;;15.86;41.02
50310;BME280;36207;51.850;21.698;2023-04-29T09:55:25;99819.95;;;15.87;40.68
50310;BME280;36207;51.850;21.698;2023-04-29T09:57:52;99818.52;;;15.91;41.14
50310;BME280;36207;51.850;21.698;2023-04-29T10:00:19;99812.85;;;15.99;41.47
50310;BME280;36207;51.850;21.698;2023-04-29T10:02:46;99812.52;;;16.08;40.17
50310;BME280;36207;51.850;21.698;2023-04-29T10:05:14;99809.05;;;16.17;40.93
50310;BME280;36207;51.850;21.698;2023-04-29T10:07:41;99808.52;;;16.25;40.18
50310;BME280;36207;51.850;21.698;2023-04-29T10:10:09;99802.01;;;16.27;41.17
50310;BME280;36207;51.850;21.698;2023-04-29T10:12:36;99803.06;;;16.33;40.37
50310;BME280;36207;51.850;21.698;2023-04-29T10:15:22;99802.52;;;16.38;40.11
50310;BME280;36207;51.850;21.698;2023-04-29T10:18:01;99801.21;;;16.40;39.23
50310;BME280;36207;51.850;21.698;2023-04-29T10:20:28;99794.73;;;16.39;40.19
50310;BME280;36207;51.850;21.698;2023-04-29T10:22:55;99792.41;;;16.42;39.93
50310;BME280;36207;51.850;21.698;2023-04-29T10:25:24;99792.66;;;16.50;40.21
50310;BME280;36207;51.850;21.698;2023-04-29T10:27:54;99783.25;;;16.53;39.10
50310;BME280;36207;51.850;21.698;2023-04-29T10:30:21;99782.94;;;16.56;39.37
50310;BME280;36207;51.850;21.698;2023-04-29T10:32:49;99784.38;;;16.57;38.94
50310;BME280;36207;51.850;21.698;2023-04-29T10:35:17;99780.71;;;16.57;39.45
50310;BME280;36207;51.850;21.698;2023-04-29T10:37:51;99782.27;;;16.64;39.34
50310;BME280;36207;51.850;21.698;2023-04-29T10:40:26;99781.95;;;16.73;39.07
50310;BME280;36207;51.850;21.698;2023-04-29T10:42:56;99773.39;;;16.77;39.05
50310;BME280;36207;51.850;21.698;2023-04-29T10:45:29;99772.16;;;16.79;38.90
50310;BME280;36207;51.850;21.698;2023-04-29T10:53:13;99769.56;;;16.86;38.59
50310;BME280;36207;51.850;21.698;2023-04-29T10:55:40;99771.56;;;16.88;38.37
50310;BME280;36207;51.850;21.698;2023-04-29T10:58:44;99769.08;;;16.88;38.41
50310;BME280;36207;51.850;21.698;2023-04-29T11:01:13;99763.92;;;16.91;38.63
50310;BME280;36207;51.850;21.698;2023-04-29T11:03:52;99758.10;;;16.92;38.40
50310;BME280;36207;51.850;21.698;2023-04-29T11:06:52;99758.36;;;16.98;38.48
50310;BME280;36207;51.850;21.698;2023-04-29T11:09:25;99751.58;;;17.06;38.59
50310;BME280;36207;51.850;21.698;2023-04-29T11:12:02;99751.66;;;17.09;38.53
50310;BME280;36207;51.850;21.698;2023-04-29T11:17:08;99744.89;;;17.25;39.70
50310;BME280;36207;51.850;21.698;2023-04-29T11:19:43;99740.16;;;17.30;38.94
50310;BME280;36207;51.850;21.698;2023-04-29T11:24:51;99745.30;;;17.31;38.43
50310;BME280;36207;51.850;21.698;2023-04-29T11:27:19;99740.73;;;17.28;38.07
50310;BME280;36207;51.850;21.698;2023-04-29T11:29:49;99738.41;;;17.27;38.32
50310;BME280;36207;51.850;21.698;2023-04-29T11:32:19;99736.59;;;17.27;38.43
50310;BME280;36207;51.850;21.698;2023-04-29T11:34:46;99735.38;;;17.28;37.85
50310;BME280;36207;51.850;21.698;2023-04-29T11:37:21;99732.88;;;17.31;38.66
50310;BME280;36207;51.850;21.698;2023-04-29T11:39:49;99740.02;;;17.39;37.78
50310;BME280;36207;51.850;21.698;2023-04-29T11:42:20;99737.63;;;17.38;38.14
50310;BME280;36207;51.850;21.698;2023-04-29T11:44:50;99727.49;;;17.45;39.41
50310;BME280;36207;51.850;21.698;2023-04-29T11:47:17;99727.02;;;17.58;39.33
50310;BME280;36207;51.850;21.698;2023-04-29T11:49:43;99719.42;;;17.66;38.69
50310;BME280;36207;51.850;21.698;2023-04-29T11:52:10;99720.46;;;17.69;38.34
50310;BME280;36207;51.850;21.698;2023-04-29T11:54:36;99720.66;;;17.67;38.60
50310;BME280;36207;51.850;21.698;2023-04-29T11:57:03;99716.66;;;17.72;38.90
50310;BME280;36207;51.850;21.698;2023-04-29T11:59:30;99722.30;;;17.77;38.46
50310;BME280;36207;51.850;21.698;2023-04-29T12:01:57;99721.87;;;17.77;38.64
50310;BME280;36207;51.850;21.698;2023-04-29T12:04:27;99724.23;;;17.72;38.23
50310;BME280;36207;51.850;21.698;2023-04-29T12:06:56;99721.17;;;17.66;38.22
50310;BME280;36207;51.850;21.698;2023-04-29T12:09:23;99721.23;;;17.64;38.15
50310;BME280;36207;51.850;21.698;2023-04-29T12:11:51;99717.10;;;17.63;38.77
50310;BME280;36207;51.850;21.698;2023-04-29T12:14:18;99709.55;;;17.68;38.86
50310;BME280;36207;51.850;21.698;2023-04-29T12:16:45;99707.60;;;17.73;39.06
50310;BME280;36207;51.850;21.698;2023-04-29T12:19:12;99706.66;;;17.78;39.42
50310;BME280;36207;51.850;21.698;2023-04-29T12:21:47;99708.35;;;17.84;39.47
50310;BME280;36207;51.850;21.698;2023-04-29T12:24:14;99706.86;;;17.83;38.70
50310;BME280;36207;51.850;21.698;2023-04-29T12:26:44;99709.90;;;17.81;37.97
50310;BME280;36207;51.850;21.698;2023-04-29T12:29:10;99706.44;;;17.75;38.26
50310;BME280;36207;51.850;21.698;2023-04-29T12:31:36;99700.64;;;17.75;38.39
50310;BME280;36207;51.850;21.698;2023-04-29T12:34:03;99702.61;;;17.77;38.87
50310;BME280;36207;51.850;21.698;2023-04-29T12:36:30;99694.61;;;17.81;39.12
50310;BME280;36207;51.850;21.698;2023-04-29T12:38:58;99691.67;;;17.87;39.21
50310;BME280;36207;51.850;21.698;2023-04-29T12:41:38;99687.09;;;17.97;39.69
50310;BME280;36207;51.850;21.698;2023-04-29T12:44:05;99681.99;;;18.06;39.35
50310;BME280;36207;51.850;21.698;2023-04-29T12:46:37;99680.89;;;18.05;38.31
50310;BME280;36207;51.850;21.698;2023-04-29T12:49:05;99683.15;;;18.00;38.13
50310;BME280;36207;51.850;21.698;2023-04-29T12:51:35;99681.86;;;17.95;38.95
50310;BME280;36207;51.850;21.698;2023-04-29T12:54:03;99681.52;;;17.93;38.52
50310;BME280;36207;51.850;21.698;2023-04-29T12:56:29;99680.00;;;17.90;38.88
50310;BME280;36207;51.850;21.698;2023-04-29T12:59:07;99677.30;;;17.95;39.53
50310;BME280;36207;51.850;21.698;2023-04-29T13:01:33;99672.46;;;18.05;39.30
50310;BME280;36207;51.850;21.698;2023-04-29T13:04:00;99677.24;;;18.11;38.97
50310;BME280;36207;51.850;21.698;2023-04-29T13:06:27;99678.98;;;18.12;38.75
50310;BME280;36207;51.850;21.698;2023-04-29T13:08:53;99673.02;;;18.11;39.61
50310;BME280;36207;51.850;21.698;2023-04-29T13:11:20;99672.08;;;18.18;39.48
50310;BME280;36207;51.850;21.698;2023-04-29T13:13:46;99669.59;;;18.24;39.91
50310;BME280;36207;51.850;21.698;2023-04-29T13:16:13;99666.48;;;18.32;40.10
50310;BME280;36207;51.850;21.698;2023-04-29T13:18:41;99671.39;;;18.36;39.21
50310;BME280;36207;51.850;21.698;2023-04-29T13:21:07;99667.60;;;18.30;39.28
50310;BME280;36207;51.850;21.698;2023-04-29T13:23:33;99666.20;;;18.25;38.91
50310;BME280;36207;51.850;21.698;2023-04-29T13:26:01;99661.35;;;18.24;39.24
50310;BME280;36207;51.850;21.698;2023-04-29T13:28:28;99661.16;;;18.22;39.09